Time;durP1;ratioP1;P1;durP2;ratioP2;P2;SDS_P1;SDS_P2;PMS_P1;PMS_P2;Temp;Humidity;BMP_temperature;BMP_pressure;BME280_temperature;BME280_humidity;BME280_pressure;Samples;Min_cycle;Max_cycle;Signal;HPM_P1;HPM_P2
2021/03/22 00:00:38;;;;;;;0.93;0.80;;;2.40;99.90;;;;;;5013432;28;20198;-68
2021/03/22 00:03:07;;;;;;;4.88;0.65;;;2.40;99.90;;;;;;5013571;28;20556;-66
2021/03/22 00:05:35;;;;;;;3.92;1.73;;;2.30;99.90;;;;;;5012981;28;20609;-66
2021/03/22 00:08:04;;;;;;;6.28;1.33;;;2.30;99.90;;;;;;5013225;28;20178;-66
2021/03/22 00:10:33;;;;;;;1.40;1.08;;;2.30;99.90;;;;;;5013578;28;20178;-66
2021/03/22 00:13:00;;;;;;;2.40;1.45;;;2.20;99.90;;;;;;4995949;28;20643;-65
2021/03/22 00:15:33;;;;;;;1.45;1.13;;;2.10;99.90;;;;;;5013260;28;20183;-65
2021/03/22 00:18:02;;;;;;;1.27;0.88;;;2.10;99.90;;;;;;5012979;28;20256;-65
2021/03/22 00:20:33;;;;;;;0.80;0.57;;;2.10;99.90;;;;;;5013037;28;20198;-65
2021/03/22 00:23:00;;;;;;;0.90;0.80;;;2.00;99.90;;;;;;5013298;28;20183;-66
2021/03/22 00:25:28;;;;;;;2.05;0.95;;;2.00;99.90;;;;;;5012887;28;20174;-66
2021/03/22 00:27:55;;;;;;;1.70;0.90;;;2.00;99.90;;;;;;5012827;28;20281;-66
2021/03/22 00:30:26;;;;;;;2.50;1.00;;;1.90;99.90;;;;;;5012994;28;20174;-66
2021/03/22 00:32:53;;;;;;;2.85;0.93;;;1.80;99.90;;;;;;5000525;28;20218;-65
2021/03/22 00:35:22;;;;;;;11.00;1.15;;;1.80;99.90;;;;;;4992897;28;20197;-67
2021/03/22 00:37:51;;;;;;;1.65;1.23;;;1.70;99.90;;;;;;4992894;28;20726;-67
2021/03/22 00:40:20;;;;;;;2.55;1.13;;;1.80;99.90;;;;;;4975365;28;20667;-67
2021/03/22 00:42:47;;;;;;;6.28;2.50;;;1.80;99.90;;;;;;4993292;28;20521;-67
2021/03/22 00:45:16;;;;;;;2.53;1.00;;;1.80;99.90;;;;;;4992998;28;20171;-66
2021/03/22 00:47:43;;;;;;;1.10;0.80;;;1.80;99.90;;;;;;4975472;28;20223;-66
2021/03/22 00:50:18;;;;;;;2.55;0.98;;;1.70;99.90;;;;;;4992721;28;20171;-66
2021/03/22 00:52:46;;;;;;;2.60;1.52;;;1.70;99.90;;;;;;4975397;28;20214;-66
2021/03/22 00:55:14;;;;;;;1.88;1.00;;;1.70;99.90;;;;;;4992586;28;20198;-66
2021/03/22 00:57:42;;;;;;;4.43;1.60;;;1.70;99.90;;;;;;4993057;28;20650;-65
2021/03/22 01:00:16;;;;;;;2.58;1.38;;;1.70;99.90;;;;;;4992728;28;20718;-66
2021/03/22 01:02:43;;;;;;;1.10;1.00;;;1.60;99.90;;;;;;4992752;28;20201;-66
2021/03/22 01:05:12;;;;;;;3.17;1.40;;;1.70;99.90;;;;;;4992594;28;20199;-66
2021/03/22 01:07:39;;;;;;;1.65;1.02;;;1.70;99.90;;;;;;4975002;28;20226;-66
2021/03/22 01:10:09;;;;;;;3.80;1.25;;;1.70;99.90;;;;;;4992304;28;20175;-66
2021/03/22 01:12:37;;;;;;;2.00;1.48;;;1.70;99.90;;;;;;4992380;28;20270;-65
2021/03/22 01:15:06;;;;;;;1.55;1.02;;;1.60;99.90;;;;;;4992348;28;20253;-65
2021/03/22 01:17:33;;;;;;;1.45;0.93;;;1.70;99.90;;;;;;4992246;28;20249;-65
2021/03/22 01:20:00;;;;;;;1.88;1.05;;;1.70;99.90;;;;;;4992504;28;20183;-65
2021/03/22 01:22:27;;;;;;;1.90;1.48;;;1.70;99.90;;;;;;4992537;28;20233;-66
2021/03/22 01:24:54;;;;;;;9.75;1.20;;;1.70;99.90;;;;;;4992425;28;20179;-66
2021/03/22 01:27:21;;;;;;;3.67;1.70;;;1.60;99.90;;;;;;4992060;28;20211;-66
2021/03/22 01:29:50;;;;;;;1.15;1.05;;;1.60;99.90;;;;;;4992331;28;20178;-66
2021/03/22 01:32:17;;;;;;;2.67;1.00;;;1.60;99.90;;;;;;4992364;28;20223;-67
2021/03/22 01:34:44;;;;;;;3.22;1.45;;;1.60;99.90;;;;;;4992077;28;20179;-66
2021/03/22 01:37:11;;;;;;;1.00;0.70;;;1.60;99.90;;;;;;4991866;28;20206;-67
2021/03/22 01:39:39;;;;;;;1.40;1.13;;;1.50;99.90;;;;;;4992158;28;20175;-66
2021/03/22 01:42:22;;;;;;;1.75;1.15;;;1.50;99.90;;;;;;4991990;28;20214;-66
2021/03/22 01:44:54;;;;;;;2.47;1.00;;;1.50;99.90;;;;;;4992188;28;20262;-66
2021/03/22 01:47:25;;;;;;;1.77;1.38;;;1.40;99.90;;;;;;4992025;28;20310;-64
2021/03/22 01:49:56;;;;;;;1.52;0.90;;;1.30;99.90;;;;;;4991898;28;20190;-65
2021/03/22 01:52:26;;;;;;;3.13;1.13;;;1.30;99.90;;;;;;4991964;28;20658;-65
2021/03/22 01:54:54;;;;;;;1.00;0.80;;;1.20;99.90;;;;;;4992114;28;20180;-65
2021/03/22 01:57:26;;;;;;;1.88;1.20;;;1.20;1.00;;;;;;4991798;28;20694;-66
2021/03/22 02:00:01;;;;;;;1.63;0.80;;;1.10;1.00;;;;;;4991787;28;20197;-65
2021/03/22 02:02:32;;;;;;;1.17;0.90;;;1.20;1.00;;;;;;4991703;28;20337;-66
2021/03/22 02:05:00;;;;;;;2.53;1.38;;;1.10;1.00;;;;;;4991746;28;20210;-66
2021/03/22 02:07:29;;;;;;;8.68;1.48;;;1.10;67.00;;;;;;4992454;28;20214;-65
2021/03/22 02:09:57;;;;;;;2.95;1.65;;;1.10;1.00;;;;;;4991961;28;20197;-64
2021/03/22 02:12:24;;;;;;;3.72;1.60;;;1.20;99.90;;;;;;4992040;28;20227;-65
2021/03/22 02:14:53;;;;;;;4.90;0.98;;;1.20;1.00;;;;;;4991902;28;20572;-65
2021/03/22 02:17:30;;;;;;;0.95;0.80;;;1.20;99.20;;;;;;4991720;28;20758;-66
2021/03/22 02:20:28;;;;;;;1.83;1.25;;;1.30;86.70;;;;;;4991813;28;20704;-65
2021/03/22 02:23:27;;;;;;;2.25;1.33;;;1.30;34.10;;;;;;4995477;28;20194;-65
2021/03/22 02:26:00;;;;;;;13.50;1.10;;;1.40;1.00;;;;;;4995638;28;20590;-65
2021/03/22 02:29:02;;;;;;;3.10;2.05;;;1.40;1.00;;;;;;4995381;28;20546;-65
2021/03/22 02:31:44;;;;;;;6.15;1.35;;;1.40;96.30;;;;;;4980812;28;20244;-66
2021/03/22 02:34:24;;;;;;;1.30;1.20;;;1.40;1.00;;;;;;4995244;28;20182;-66
2021/03/22 02:37:10;;;;;;;4.35;1.00;;;1.40;1.00;;;;;;4995228;28;20677;-65
2021/03/22 02:39:42;;;;;;;4.70;1.40;;;1.40;99.90;;;;;;4996876;28;20179;-66
2021/03/22 02:42:12;;;;;;;5.50;1.50;;;1.40;1.00;;;;;;4997240;28;20699;-65
2021/03/22 02:44:39;;;;;;;1.25;1.15;;;1.40;1.00;;;;;;4997926;28;20586;-66
2021/03/22 02:47:26;;;;;;;7.43;1.38;;;1.40;1.00;;;;;;4997472;28;20211;-65
2021/03/22 02:49:57;;;;;;;2.90;0.90;;;1.40;1.00;;;;;;4995110;28;20210;-65
2021/03/22 02:52:45;;;;;;;1.77;1.50;;;1.40;99.90;;;;;;4995042;28;20262;-66
2021/03/22 02:55:27;;;;;;;1.95;1.25;;;1.40;99.90;;;;;;4995618;28;20210;-66
2021/03/22 02:57:59;;;;;;;1.58;1.15;;;1.30;99.90;;;;;;4994975;28;20214;-65
2021/03/22 03:00:31;;;;;;;5.63;1.35;;;1.40;99.90;;;;;;4994762;28;20195;-65
2021/03/22 03:03:02;;;;;;;1.55;0.90;;;1.30;1.00;;;;;;4994690;28;20234;-65
2021/03/22 03:05:33;;;;;;;1.92;1.45;;;1.20;1.00;;;;;;4996132;28;20266;-66
2021/03/22 03:08:03;;;;;;;2.65;1.40;;;1.30;99.90;;;;;;4995350;28;20183;-66
2021/03/22 03:10:30;;;;;;;5.07;1.70;;;1.20;99.90;;;;;;4994757;28;20179;-67
2021/03/22 03:12:57;;;;;;;3.25;1.83;;;1.20;99.90;;;;;;4994722;28;20191;-66
2021/03/22 03:15:25;;;;;;;1.95;1.05;;;1.20;1.00;;;;;;4994611;28;20180;-69
2021/03/22 03:17:53;;;;;;;5.55;3.20;;;1.20;1.00;;;;;;4977138;28;20608;-66
2021/03/22 03:20:24;;;;;;;4.20;2.00;;;1.10;99.90;;;;;;4994497;28;20175;-66
2021/03/22 03:22:54;;;;;;;5.05;1.73;;;1.10;1.00;;;;;;4994615;28;20179;-66
2021/03/22 03:25:21;;;;;;;2.35;2.15;;;1.10;99.90;;;;;;4976979;28;20190;-65
2021/03/22 03:27:49;;;;;;;5.47;1.70;;;1.00;92.30;;;;;;4994243;28;20203;-67
2021/03/22 03:30:19;;;;;;;3.60;1.30;;;1.00;99.90;;;;;;4976816;28;20597;-65
2021/03/22 03:32:47;;;;;;;2.83;2.63;;;0.90;99.90;;;;;;4993152;28;20186;-64
2021/03/22 03:35:18;;;;;;;1.23;1.00;;;0.90;99.90;;;;;;4994348;28;20197;-66
2021/03/22 03:37:45;;;;;;;1.55;1.00;;;0.90;99.90;;;;;;4994284;28;20313;-66
2021/03/22 03:40:17;;;;;;;2.03;1.00;;;0.90;99.90;;;;;;4994110;28;20175;-65
2021/03/22 03:42:44;;;;;;;10.05;1.50;;;0.80;99.90;;;;;;4976552;28;20191;-66
2021/03/22 03:45:14;;;;;;;3.75;2.20;;;0.80;99.90;;;;;;4993775;28;20183;-65
2021/03/22 03:47:42;;;;;;;1.50;1.30;;;0.80;99.90;;;;;;4993910;28;20206;-65
2021/03/22 03:50:12;;;;;;;11.45;2.03;;;0.80;99.90;;;;;;4993963;28;20182;-66
2021/03/22 03:52:40;;;;;;;4.30;1.23;;;0.70;99.90;;;;;;4993963;28;20190;-65
2021/03/22 03:55:08;;;;;;;4.00;1.10;;;0.70;99.90;;;;;;4976446;28;20198;-67
2021/03/22 03:57:37;;;;;;;1.40;1.00;;;0.70;99.90;;;;;;4994425;28;20217;-67
2021/03/22 04:00:08;;;;;;;5.25;1.35;;;0.60;99.90;;;;;;4994358;28;20193;-66
2021/03/22 04:02:40;;;;;;;1.33;0.85;;;0.60;99.90;;;;;;4994194;28;20596;-66
2021/03/22 04:05:10;;;;;;;3.78;1.20;;;0.50;99.90;;;;;;5000311;23;21002;-64
2021/03/22 04:07:37;;;;;;;9.40;2.55;;;0.50;99.90;;;;;;5036871;28;20224;-65
2021/03/22 04:10:06;;;;;;;6.18;1.70;;;0.40;99.90;;;;;;5059868;28;20195;-64
2021/03/22 04:12:33;;;;;;;5.15;2.50;;;0.40;99.90;;;;;;5065861;28;20208;-65
2021/03/22 04:15:01;;;;;;;9.50;1.67;;;0.40;99.90;;;;;;5066987;28;20252;-66
2021/03/22 04:17:28;;;;;;;1.23;1.05;;;0.40;99.90;;;;;;5066819;28;20220;-65
2021/03/22 04:19:56;;;;;;;5.15;2.25;;;0.30;99.90;;;;;;5067568;28;20196;-66
2021/03/22 04:22:23;;;;;;;4.00;1.35;;;0.30;99.90;;;;;;5067352;28;20205;-65
2021/03/22 04:24:51;;;;;;;2.28;1.55;;;0.30;99.90;;;;;;5067971;28;20203;-65
2021/03/22 04:27:18;;;;;;;3.53;1.17;;;0.30;99.90;;;;;;5065517;28;20719;-65
2021/03/22 04:29:45;;;;;;;1.65;1.48;;;0.20;99.90;;;;;;5066778;28;20287;-65
2021/03/22 04:32:13;;;;;;;2.00;1.25;;;0.10;99.90;;;;;;5067171;28;20169;-64
2021/03/22 04:34:42;;;;;;;2.13;1.30;;;0.10;99.90;;;;;;5066697;28;20193;-66
2021/03/22 04:37:09;;;;;;;2.50;1.70;;;0.00;99.90;;;;;;5066741;28;20218;-65
2021/03/22 04:39:37;;;;;;;3.25;1.80;;;0.00;99.90;;;;;;5066658;28;20192;-65
2021/03/22 04:42:05;;;;;;;5.78;1.85;;;-0.10;99.90;;;;;;5066951;28;20196;-66
2021/03/22 04:44:32;;;;;;;3.05;1.92;;;-0.10;99.90;;;;;;5066923;28;20246;-65
2021/03/22 04:46:59;;;;;;;10.70;1.90;;;-0.10;99.90;;;;;;5065843;28;20213;-63
2021/03/22 04:49:28;;;;;;;1.38;1.23;;;0.00;99.90;;;;;;5067127;28;20211;-63
2021/03/22 04:51:55;;;;;;;2.60;2.05;;;0.00;99.90;;;;;;5066902;28;20202;-65
2021/03/22 04:54:22;;;;;;;1.67;1.48;;;0.00;99.90;;;;;;5066927;28;20287;-64
2021/03/22 04:56:49;;;;;;;4.28;1.27;;;-0.10;99.90;;;;;;5066587;28;20209;-63
2021/03/22 04:59:16;;;;;;;2.00;1.00;;;-0.10;99.90;;;;;;5066043;28;20209;-65
2021/03/22 05:01:44;;;;;;;6.43;2.25;;;-0.10;99.90;;;;;;5066063;28;20220;-65
2021/03/22 05:04:11;;;;;;;13.95;2.25;;;-0.10;99.90;;;;;;5064450;28;20196;-65
2021/03/22 05:06:39;;;;;;;2.35;1.70;;;-0.10;99.90;;;;;;5066111;28;20277;-65
2021/03/22 05:09:06;;;;;;;2.65;1.58;;;-0.10;99.90;;;;;;5066560;28;20241;-65
2021/03/22 05:11:34;;;;;;;2.13;1.52;;;-0.10;99.90;;;;;;5066297;28;20169;-68
2021/03/22 05:14:01;;;;;;;1.90;1.60;;;-0.10;99.90;;;;;;5066030;28;20203;-64
2021/03/22 05:16:29;;;;;;;3.67;1.65;;;-0.10;99.90;;;;;;5066030;28;20208;-65
2021/03/22 05:19:16;;;;;;;3.45;1.85;;;-0.10;99.90;;;;;;5066032;28;20227;-64
2021/03/22 05:21:44;;;;;;;2.42;1.30;;;0.00;99.90;;;;;;5064275;28;20204;-64
2021/03/22 05:24:11;;;;;;;2.00;1.23;;;0.00;99.90;;;;;;5063089;28;20284;-64
2021/03/22 05:26:39;;;;;;;20.75;7.75;;;0.00;99.90;;;;;;5067018;28;20283;-65
2021/03/22 05:29:07;;;;;;;9.70;2.65;;;0.00;99.90;;;;;;5067197;28;20238;-64
2021/03/22 05:31:35;;;;;;;12.40;5.90;;;0.10;99.90;;;;;;5066997;28;20259;-65
2021/03/22 05:34:03;;;;;;;18.92;7.00;;;0.20;99.90;;;;;;5067189;28;20255;-65
2021/03/22 05:36:30;;;;;;;17.15;8.50;;;0.20;99.90;;;;;;5067235;28;20205;-65
2021/03/22 05:38:59;;;;;;;23.05;11.60;;;0.20;99.90;;;;;;5064570;28;20572;-64
2021/03/22 05:41:27;;;;;;;29.80;11.48;;;0.30;99.90;;;;;;5066764;28;20235;-64
2021/03/22 05:44:02;;;;;;;42.90;16.05;;;0.30;99.90;;;;;;5067553;28;20199;-64
2021/03/22 05:46:40;;;;;;;32.42;21.27;;;0.40;99.90;;;;;;5067056;28;20272;-65
2021/03/22 05:49:23;;;;;;;17.05;6.55;;;0.40;99.90;;;;;;5066360;28;20487;-66
2021/03/22 05:52:18;;;;;;;14.25;6.03;;;0.50;99.90;;;;;;5067430;28;20184;-64
2021/03/22 05:55:06;;;;;;;7.20;3.60;;;0.50;99.90;;;;;;5066827;28;20177;-64
2021/03/22 05:57:45;;;;;;;2.67;2.13;;;0.50;99.90;;;;;;5070953;28;20242;-65
2021/03/22 06:00:20;;;;;;;8.95;2.30;;;0.60;99.90;;;;;;5069270;28;20196;-64
2021/03/22 06:03:02;;;;;;;4.53;1.98;;;0.60;99.90;;;;;;5065447;28;20220;-63
2021/03/22 06:05:36;;;;;;;6.28;2.42;;;0.70;99.90;;;;;;5024821;28;20227;-65
2021/03/22 06:08:17;;;;;;;3.40;2.65;;;0.70;99.90;;;;;;5049999;28;20297;-64
2021/03/22 06:10:51;;;;;;;2.13;1.80;;;0.80;99.90;;;;;;5050492;28;20292;-63
2021/03/22 06:13:22;;;;;;;2.72;1.85;;;0.90;99.90;;;;;;5048482;28;20189;-64
2021/03/22 06:15:55;;;;;;;4.97;2.42;;;1.00;99.90;;;;;;5029376;28;20733;-63
2021/03/22 06:18:28;;;;;;;5.75;2.72;;;1.10;99.90;;;;;;5037070;28;20243;-65
2021/03/22 06:21:00;;;;;;;7.18;2.00;;;1.20;99.90;;;;;;5047033;28;20213;-65
2021/03/22 06:23:36;;;;;;;5.47;3.55;;;1.20;99.90;;;;;;5049031;28;20181;-65
2021/03/22 06:26:04;;;;;;;8.55;3.50;;;1.40;99.90;;;;;;5046111;28;20274;-65
2021/03/22 06:28:38;;;;;;;5.72;2.55;;;1.60;99.90;;;;;;5047785;28;20236;-66
2021/03/22 06:31:09;;;;;;;6.70;2.13;;;1.70;99.90;;;;;;5048726;28;20174;-65
2021/03/22 06:33:40;;;;;;;2.13;1.40;;;1.70;99.90;;;;;;5047672;28;20181;-64
2021/03/22 06:36:11;;;;;;;3.05;1.80;;;1.80;99.90;;;;;;5047615;28;20221;-65
2021/03/22 06:38:38;;;;;;;9.82;4.35;;;1.90;99.90;;;;;;5047635;28;20200;-66
2021/03/22 06:41:36;;;;;;;5.70;1.95;;;2.00;99.90;;;;;;5047913;28;20205;-67
2021/03/22 06:44:06;;;;;;;8.82;2.47;;;2.10;99.90;;;;;;5048638;28;20178;-65
2021/03/22 06:46:34;;;;;;;3.72;2.58;;;2.30;99.90;;;;;;5048623;28;20213;-64
2021/03/22 06:49:06;;;;;;;3.70;2.70;;;2.40;99.90;;;;;;5048195;28;20193;-65
2021/03/22 06:51:33;;;;;;;7.03;1.83;;;2.60;99.90;;;;;;5048734;28;20672;-66
2021/03/22 06:54:02;;;;;;;2.60;2.17;;;2.80;99.90;;;;;;5048025;28;20258;-65
2021/03/22 06:56:33;;;;;;;2.42;2.22;;;2.90;99.90;;;;;;5048078;28;20209;-64
2021/03/22 06:59:13;;;;;;;7.15;2.58;;;3.00;99.90;;;;;;5044741;28;20651;-65
2021/03/22 07:01:42;;;;;;;8.60;2.97;;;3.10;1.00;;;;;;5038579;28;20220;-66
2021/03/22 07:04:25;;;;;;;9.38;3.50;;;3.30;99.90;;;;;;5045199;28;20197;-64
2021/03/22 07:07:11;;;;;;;13.82;2.95;;;3.40;99.90;;;;;;5047089;28;20240;-65
2021/03/22 07:09:41;;;;;;;6.30;2.00;;;3.70;99.90;;;;;;5048151;28;20240;-66
2021/03/22 07:12:22;;;;;;;7.30;2.80;;;3.90;99.90;;;;;;5047744;28;20174;-64
2021/03/22 07:14:50;;;;;;;3.33;1.90;;;4.00;99.90;;;;;;5048444;28;20236;-66
2021/03/22 07:17:21;;;;;;;5.88;3.05;;;3.90;99.90;;;;;;5047723;28;20221;-68
2021/03/22 07:20:07;;;;;;;6.50;2.92;;;3.80;99.90;;;;;;5047423;28;20178;-65
2021/03/22 07:22:35;;;;;;;3.80;1.60;;;3.90;99.90;;;;;;5045948;28;20233;-66
2021/03/22 07:25:06;;;;;;;3.95;2.53;;;3.90;99.90;;;;;;5046458;28;20204;-63
2021/03/22 07:27:41;;;;;;;7.80;6.18;;;4.00;99.90;;;;;;5024114;28;20224;-66
2021/03/22 07:30:25;;;;;;;12.27;5.55;;;4.20;99.90;;;;;;5024519;28;20194;-65
2021/03/22 07:33:03;;;;;;;6.10;3.47;;;4.50;99.90;;;;;;5023448;28;20186;-64
2021/03/22 07:35:50;;;;;;;7.65;3.08;;;4.60;99.90;;;;;;5025414;28;20178;-65
2021/03/22 07:38:34;;;;;;;6.35;2.08;;;4.70;99.90;;;;;;5007433;28;20455;-64
2021/03/22 07:41:06;;;;;;;6.45;2.13;;;4.80;99.90;;;;;;5026516;28;20744;-65
2021/03/22 07:43:46;;;;;;;7.65;2.30;;;4.70;99.90;;;;;;5025202;28;20662;-66
2021/03/22 07:46:26;;;;;;;5.53;2.55;;;4.80;99.90;;;;;;5025217;28;20206;-65
2021/03/22 07:49:11;;;;;;;3.08;2.00;;;5.00;99.90;;;;;;5026560;28;20605;-65
2021/03/22 07:52:05;;;;;;;3.80;2.00;;;5.20;99.90;;;;;;5026647;28;20278;-66
2021/03/22 07:54:46;;;;;;;3.60;1.33;;;5.50;99.90;;;;;;5023748;28;20206;-65
2021/03/22 07:57:28;;;;;;;3.78;0.88;;;5.70;99.90;;;;;;5025380;28;20213;-64
2021/03/22 08:00:04;;;;;;;6.65;2.15;;;5.60;99.90;;;;;;5025485;28;20562;-65
2021/03/22 08:02:49;;;;;;;6.50;3.60;;;5.40;99.90;;;;;;5023905;28;20220;-65
2021/03/22 08:05:24;;;;;;;4.00;2.08;;;5.60;99.90;;;;;;5024065;28;20297;-65
2021/03/22 08:08:03;;;;;;;5.68;2.10;;;5.70;99.90;;;;;;5006581;28;20185;-63
2021/03/22 08:10:40;;;;;;;2.30;1.42;;;5.70;99.90;;;;;;5025200;28;20190;-63
2021/03/22 08:13:27;;;;;;;5.13;1.67;;;5.90;99.90;;;;;;5024657;28;20611;-64
2021/03/22 08:16:17;;;;;;;2.47;1.05;;;6.00;99.90;;;;;;5007263;28;20218;-63
2021/03/22 08:18:51;;;;;;;4.07;1.77;;;5.80;99.90;;;;;;5024800;28;20170;-64
2021/03/22 08:21:37;;;;;;;6.50;2.30;;;5.80;99.90;;;;;;5022838;28;20272;-64
2021/03/22 08:24:19;;;;;;;6.82;1.90;;;5.90;99.90;;;;;;5035345;28;20216;-64
2021/03/22 08:26:53;;;;;;;2.13;1.05;;;5.90;99.90;;;;;;5043212;28;20580;-64
2021/03/22 08:29:25;;;;;;;2.35;1.70;;;5.80;99.90;;;;;;5041312;28;20201;-65
2021/03/22 08:32:01;;;;;;;3.10;1.52;;;5.90;99.90;;;;;;5043048;28;20236;-63
2021/03/22 08:34:40;;;;;;;9.55;1.88;;;6.00;99.90;;;;;;5033179;28;20194;-66
2021/03/22 08:37:10;;;;;;;6.65;2.38;;;6.30;99.90;;;;;;5023368;28;20218;-64
2021/03/22 08:39:44;;;;;;;2.17;1.45;;;6.50;99.90;;;;;;5024845;28;20205;-64
2021/03/22 08:42:17;;;;;;;4.70;2.13;;;6.40;99.90;;;;;;5024651;28;20226;-65
2021/03/22 08:44:53;;;;;;;5.35;1.65;;;6.50;99.90;;;;;;5025701;28;20174;-64
2021/03/22 08:47:35;;;;;;;2.85;1.17;;;6.50;99.90;;;;;;5023169;28;20243;-63
2021/03/22 08:50:08;;;;;;;3.00;1.77;;;6.70;99.90;;;;;;5022504;28;20236;-64
2021/03/22 08:52:38;;;;;;;2.28;1.20;;;7.10;99.90;;;;;;5022759;28;20627;-64
2021/03/22 08:55:11;;;;;;;5.65;1.60;;;7.30;99.90;;;;;;5024788;28;20197;-65
2021/03/22 08:57:52;;;;;;;3.47;1.70;;;7.40;99.90;;;;;;5024233;28;20205;-65
2021/03/22 09:00:30;;;;;;;3.63;1.20;;;7.60;99.90;;;;;;5023575;28;20201;-64
2021/03/22 09:03:01;;;;;;;3.72;1.92;;;7.70;99.90;;;;;;5030414;28;20210;-63
2021/03/22 09:05:34;;;;;;;2.78;1.35;;;7.40;99.90;;;;;;5022495;28;20252;-65
2021/03/22 09:08:25;;;;;;;6.35;1.58;;;7.40;99.90;;;;;;5022998;28;20202;-66
2021/03/22 09:10:54;;;;;;;11.95;1.67;;;7.40;99.90;;;;;;4997971;28;20211;-64
2021/03/22 09:13:27;;;;;;;4.25;1.52;;;7.40;99.90;;;;;;5020667;28;20190;-67
2021/03/22 09:16:04;;;;;;;3.58;0.85;;;7.40;99.90;;;;;;5022340;28;20209;-67
2021/03/22 09:18:32;;;;;;;2.45;1.25;;;7.40;99.90;;;;;;5031230;28;20174;-65
2021/03/22 09:21:18;;;;;;;4.80;3.35;;;7.40;99.90;;;;;;5030605;28;20659;-66
2021/03/22 09:23:46;;;;;;;8.38;2.10;;;7.50;99.90;;;;;;5031278;28;20253;-65
2021/03/22 09:26:14;;;;;;;2.65;1.58;;;7.60;99.90;;;;;;5031193;28;20213;-66
2021/03/22 09:28:50;;;;;;;6.38;1.77;;;7.60;99.90;;;;;;5031028;28;20177;-66
2021/03/22 09:31:38;;;;;;;5.47;1.65;;;7.70;99.90;;;;;;5029982;28;20193;-67
2021/03/22 09:34:45;;;;;;;2.55;0.90;;;8.10;99.90;;;;;;5031116;28;20544;-65
2021/03/22 09:37:38;;;;;;;2.63;1.80;;;8.20;99.90;;;;;;5030922;28;20552;-66
2021/03/22 09:40:08;;;;;;;1.92;1.42;;;8.30;99.90;;;;;;5030167;28;20272;-65
2021/03/22 09:42:36;;;;;;;2.70;1.17;;;8.10;99.90;;;;;;5030413;28;20580;-66
2021/03/22 09:45:20;;;;;;;1.75;1.27;;;8.30;99.90;;;;;;5031330;28;20243;-66
2021/03/22 09:48:17;;;;;;;2.60;1.65;;;8.30;99.90;;;;;;5031424;28;20205;-67
2021/03/22 09:50:48;;;;;;;2.97;1.27;;;8.00;99.90;;;;;;5029887;28;20635;-66
2021/03/22 09:53:20;;;;;;;2.38;1.15;;;8.10;99.90;;;;;;5031395;28;20205;-65
2021/03/22 09:56:02;;;;;;;2.17;1.20;;;7.90;99.90;;;;;;5031146;28;20213;-64
2021/03/22 09:58:42;;;;;;;3.00;1.55;;;7.60;99.90;;;;;;5031418;28;20231;-66
2021/03/22 10:01:38;;;;;;;2.60;1.40;;;7.50;99.90;;;;;;5031878;28;20591;-66
2021/03/22 10:04:30;;;;;;;3.13;1.63;;;7.60;99.90;;;;;;5032078;28;20557;-67
2021/03/22 10:07:18;;;;;;;0.80;0.60;;;7.70;99.90;;;;;;5044892;22;20225;-69
2021/03/22 10:09:51;;;;;;;2.05;1.85;;;7.60;99.90;;;;;;5030330;28;20520;-68
2021/03/22 10:12:22;;;;;;;1.92;0.80;;;7.80;99.90;;;;;;5030364;28;20271;-70
2021/03/22 10:15:04;;;;;;;1.25;0.90;;;7.90;99.90;;;;;;5030585;28;20680;-69
2021/03/22 10:17:35;;;;;;;1.58;1.27;;;8.00;99.90;;;;;;5030600;28;20551;-68
2021/03/22 10:20:19;;;;;;;3.45;1.27;;;7.80;99.90;;;;;;5030762;28;20273;-70
2021/03/22 10:23:14;;;;;;;4.13;1.50;;;8.00;99.90;;;;;;5012376;28;20297;-71
2021/03/22 10:25:43;;;;;;;3.17;0.90;;;7.90;99.90;;;;;;5030340;28;20189;-69
2021/03/22 10:28:19;;;;;;;18.13;13.85;;;7.80;99.90;;;;;;5030073;28;20189;-68
2021/03/22 10:30:54;;;;;;;2.03;1.48;;;7.80;99.90;;;;;;5029384;28;20208;-69
2021/03/22 10:33:22;;;;;;;2.45;1.38;;;7.90;99.90;;;;;;5030646;28;20184;-68
2021/03/22 10:35:52;;;;;;;2.03;1.20;;;8.00;99.90;;;;;;5030421;28;20209;-69
2021/03/22 10:38:24;;;;;;;3.25;2.95;;;8.20;99.90;;;;;;5031168;28;20209;-69
2021/03/22 10:40:53;;;;;;;2.55;1.90;;;8.30;99.90;;;;;;5031132;28;20201;-69
2021/03/22 10:46:36;;;;;;;1.38;1.27;;;8.30;99.90;;;;;;5609776;23;20223;-82
2021/03/22 10:49:08;;;;;;;1.30;1.15;;;8.50;99.90;;;;;;4959370;29;20219;-82
2021/03/22 10:51:47;;;;;;;1.85;0.70;;;8.70;99.90;;;;;;4977006;28;20192;-81
2021/03/22 10:54:17;;;;;;;1.75;1.60;;;8.80;99.90;;;;;;4972138;29;20649;-82
2021/03/22 10:56:55;;;;;;;3.72;1.90;;;8.80;99.90;;;;;;4956618;23;20246;-67
2021/03/22 10:59:26;;;;;;;3.10;1.80;;;8.90;99.90;;;;;;4935826;29;20669;-69
2021/03/22 11:01:56;;;;;;;2.05;1.55;;;9.00;99.90;;;;;;4954970;23;20232;-69
2021/03/22 11:04:27;;;;;;;1.20;0.80;;;9.00;99.90;;;;;;4919870;29;20196;-69
2021/03/22 11:06:56;;;;;;;1.10;0.73;;;9.20;99.90;;;;;;4935398;29;20212;-68
2021/03/22 11:09:29;;;;;;;2.10;1.20;;;9.10;99.90;;;;;;4936137;29;20522;-68
2021/03/22 11:11:58;;;;;;;2.10;1.10;;;9.10;99.90;;;;;;4935739;29;20177;-68
2021/03/22 11:14:28;;;;;;;1.40;0.90;;;9.10;99.90;;;;;;4936031;29;20561;-68
2021/03/22 11:16:55;;;;;;;1.95;0.60;;;9.10;99.90;;;;;;4934953;29;20244;-69
2021/03/22 11:19:28;;;;;;;1.33;1.15;;;9.00;99.90;;;;;;4936259;29;20703;-69
2021/03/22 11:22:00;;;;;;;1.10;0.93;;;9.00;99.90;;;;;;4935812;29;20737;-69
2021/03/22 11:24:39;;;;;;;1.55;0.90;;;9.10;99.90;;;;;;4918849;29;20216;-69
2021/03/22 11:27:09;;;;;;;1.58;1.20;;;9.20;99.90;;;;;;4930718;29;20304;-69
2021/03/22 11:30:04;;;;;;;2.55;1.20;;;9.30;99.90;;;;;;4920754;29;20181;-70
2021/03/22 11:32:34;;;;;;;3.20;1.10;;;9.50;99.90;;;;;;4934635;29;20196;-69
2021/03/22 11:35:21;;;;;;;3.47;1.35;;;9.70;99.90;;;;;;4933959;29;20196;-68
2021/03/22 11:37:51;;;;;;;1.20;0.82;;;9.50;99.90;;;;;;4934389;29;20213;-69
2021/03/22 11:40:22;;;;;;;7.55;1.13;;;9.40;99.90;;;;;;4935390;29;20572;-69
2021/03/22 11:42:54;;;;;;;1.95;0.90;;;9.40;99.90;;;;;;4934840;29;20224;-68
2021/03/22 11:45:38;;;;;;;2.08;0.88;;;9.40;99.90;;;;;;4935422;29;20594;-69
2021/03/22 11:48:32;;;;;;;1.95;1.05;;;9.60;99.90;;;;;;4934822;29;20212;-70
2021/03/22 11:51:02;;;;;;;0.90;0.60;;;9.70;99.90;;;;;;4935352;29;20257;-69
2021/03/22 11:53:30;;;;;;;1.38;0.85;;;9.70;99.90;;;;;;4933645;29;20184;-68
2021/03/22 11:56:20;;;;;;;1.45;0.88;;;9.70;99.90;;;;;;4935144;29;20216;-69
2021/03/22 11:58:48;;;;;;;1.00;0.80;;;9.80;99.90;;;;;;4935354;29;20173;-69
2021/03/22 12:01:19;;;;;;;1.63;0.80;;;10.00;99.90;;;;;;4935019;29;20193;-69
2021/03/22 12:04:14;;;;;;;6.28;1.17;;;9.90;99.90;;;;;;4934979;29;20702;-69
2021/03/22 12:06:53;;;;;;;2.55;0.80;;;9.80;99.90;;;;;;4934674;29;20212;-69
2021/03/22 12:09:21;;;;;;;1.95;1.20;;;9.70;99.90;;;;;;4935084;29;20193;-68
2021/03/22 12:11:51;;;;;;;5.70;1.23;;;9.90;99.90;;;;;;4936183;29;20736;-71
2021/03/22 12:14:19;;;;;;;2.85;0.77;;;10.20;99.90;;;;;;4935801;29;20255;-67
2021/03/22 12:16:48;;;;;;;4.60;0.75;;;9.90;99.90;;;;;;4935097;29;20221;-68
2021/03/22 12:19:19;;;;;;;3.53;0.80;;;10.00;99.90;;;;;;4935164;29;20220;-67
2021/03/22 12:21:49;;;;;;;2.25;1.17;;;10.00;99.90;;;;;;4934833;29;20192;-69
2021/03/22 12:24:23;;;;;;;2.38;1.30;;;10.00;99.90;;;;;;4935547;29;20176;-68
2021/03/22 12:26:51;;;;;;;0.85;0.60;;;10.10;99.90;;;;;;4936699;29;20220;-69
2021/03/22 12:29:19;;;;;;;2.25;0.90;;;10.30;99.90;;;;;;4923365;29;20201;-71
2021/03/22 12:31:48;;;;;;;1.50;0.70;;;10.20;99.90;;;;;;4945492;29;20185;-71
2021/03/22 12:34:19;;;;;;;1.52;0.95;;;10.10;99.90;;;;;;4930389;29;20211;-69
2021/03/22 12:36:48;;;;;;;0.80;0.50;;;9.80;99.90;;;;;;4944708;29;20300;-71
2021/03/22 12:39:22;;;;;;;1.95;0.75;;;9.70;99.90;;;;;;4942028;29;20217;-69
2021/03/22 12:41:51;;;;;;;1.88;0.95;;;9.90;99.90;;;;;;4943583;29;20188;-69
2021/03/22 12:44:20;;;;;;;1.00;0.55;;;10.10;99.90;;;;;;4942645;29;20197;-71
2021/03/22 12:46:47;;;;;;;2.17;0.70;;;10.30;99.90;;;;;;4940215;29;20219;-70
2021/03/22 12:49:17;;;;;;;4.60;0.90;;;10.50;99.90;;;;;;4923506;29;20193;-70
2021/03/22 12:51:45;;;;;;;2.03;1.00;;;10.70;99.90;;;;;;4940437;29;20169;-73
2021/03/22 12:54:13;;;;;;;1.38;1.00;;;10.40;99.90;;;;;;4941982;29;20196;-69
2021/03/22 12:56:41;;;;;;;1.13;0.70;;;10.20;99.90;;;;;;4940009;29;20268;-70
2021/03/22 12:59:31;;;;;;;1.73;1.02;;;10.00;99.90;;;;;;4938494;29;20550;-72
2021/03/22 13:02:00;;;;;;;2.55;0.80;;;10.20;99.90;;;;;;4939356;29;20197;-70
2021/03/22 13:04:30;;;;;;;1.90;0.77;;;10.30;99.90;;;;;;4938322;29;20718;-71
2021/03/22 13:06:58;;;;;;;1.02;0.65;;;10.30;99.90;;;;;;4938169;29;20223;-69
2021/03/22 13:09:25;;;;;;;2.10;0.80;;;10.30;99.90;;;;;;4937671;29;20216;-69
2021/03/22 13:11:53;;;;;;;1.00;0.68;;;10.50;99.90;;;;;;4938153;29;20196;-70
2021/03/22 13:14:20;;;;;;;1.30;0.85;;;10.70;99.90;;;;;;4937181;29;20220;-68
2021/03/22 13:16:49;;;;;;;0.90;0.63;;;10.90;99.90;;;;;;4953391;28;20274;-70
2021/03/22 13:19:16;;;;;;;3.83;0.90;;;10.90;99.90;;;;;;4955024;29;20541;-70
2021/03/22 13:21:44;;;;;;;1.33;1.20;;;10.90;99.90;;;;;;4954236;29;20925;-68
2021/03/22 13:24:18;;;;;;;1.30;1.13;;;10.80;99.90;;;;;;4953150;29;20271;-69
2021/03/22 13:26:45;;;;;;;1.05;0.70;;;10.70;99.90;;;;;;4953356;28;20238;-71
2021/03/22 13:29:12;;;;;;;3.05;1.35;;;10.60;99.90;;;;;;4952448;29;20196;-68